sensor_id;sensor_type;location;lat;lon;timestamp;pressure;altitude;pressure_sealevel;temperature;humidity
50636;BME280;36598;46.054;11.130;2022-10-31T00:00:39;99986.78;;;14.51;69.53
50636;BME280;36598;46.054;11.130;2022-10-31T00:03:04;99986.84;;;14.47;69.47
50636;BME280;36598;46.054;11.130;2022-10-31T00:05:30;99984.84;;;14.48;69.77
50636;BME280;36598;46.054;11.130;2022-10-31T00:07:55;99999.34;;;14.36;69.79
50636;BME280;36598;46.054;11.130;2022-10-31T00:10:20;99990.03;;;14.46;69.82
50636;BME280;36598;46.054;11.130;2022-10-31T00:12:45;99991.56;;;14.23;70.69
50636;BME280;36598;46.054;11.130;2022-10-31T00:15:11;99995.66;;;14.15;70.91
50636;BME280;36598;46.054;11.130;2022-10-31T00:17:36;100000.28;;;14.25;70.37
50636;BME280;36598;46.054;11.130;2022-10-31T00:20:01;99989.88;;;14.02;71.80
50636;BME280;36598;46.054;11.130;2022-10-31T00:22:27;99993.38;;;13.80;72.96
50636;BME280;36598;46.054;11.130;2022-10-31T00:24:52;99996.97;;;14.07;71.79
50636;BME280;36598;46.054;11.130;2022-10-31T00:27:17;99991.38;;;14.11;71.58
50636;BME280;36598;46.054;11.130;2022-10-31T00:29:43;99996.25;;;14.03;71.90
50636;BME280;36598;46.054;11.130;2022-10-31T00:32:08;99994.56;;;14.09;70.89
50636;BME280;36598;46.054;11.130;2022-10-31T00:34:33;99992.88;;;14.15;71.36
50636;BME280;36598;46.054;11.130;2022-10-31T00:36:58;99997.22;;;13.89;71.57
50636;BME280;36598;46.054;11.130;2022-10-31T00:39:24;99992.16;;;14.11;70.86
50636;BME280;36598;46.054;11.130;2022-10-31T00:41:49;99992.25;;;14.04;71.10
50636;BME280;36598;46.054;11.130;2022-10-31T00:44:14;99994.69;;;13.71;71.97
50636;BME280;36598;46.054;11.130;2022-10-31T00:46:40;99997.59;;;13.91;71.21
50636;BME280;36598;46.054;11.130;2022-10-31T00:49:05;99994.88;;;13.88;71.44
50636;BME280;36598;46.054;11.130;2022-10-31T00:51:30;100001.31;;;13.81;71.88
50636;BME280;36598;46.054;11.130;2022-10-31T00:53:56;99996.31;;;13.96;71.27
50636;BME280;36598;46.054;11.130;2022-10-31T00:56:21;100002.00;;;13.89;71.56
50636;BME280;36598;46.054;11.130;2022-10-31T00:58:46;99997.63;;;13.57;73.54
50636;BME280;36598;46.054;11.130;2022-10-31T01:01:12;100003.41;;;13.70;72.54
50636;BME280;36598;46.054;11.130;2022-10-31T01:03:37;99996.41;;;13.92;71.77
50636;BME280;36598;46.054;11.130;2022-10-31T01:06:05;99995.16;;;13.66;72.43
50636;BME280;36598;46.054;11.130;2022-10-31T01:08:31;99990.34;;;13.70;72.52
50636;BME280;36598;46.054;11.130;2022-10-31T01:13:24;99994.00;;;13.60;72.41
50636;BME280;36598;46.054;11.130;2022-10-31T01:15:53;99988.22;;;13.47;72.60
50636;BME280;36598;46.054;11.130;2022-10-31T01:18:19;99991.94;;;13.68;72.42
50636;BME280;36598;46.054;11.130;2022-10-31T01:20:44;99995.53;;;13.31;73.78
50636;BME280;36598;46.054;11.130;2022-10-31T01:23:09;99997.38;;;13.44;72.91
50636;BME280;36598;46.054;11.130;2022-10-31T01:25:34;99991.22;;;13.60;72.28
50636;BME280;36598;46.054;11.130;2022-10-31T01:28:00;99989.59;;;13.66;72.38
50636;BME280;36598;46.054;11.130;2022-10-31T01:30:25;99987.19;;;13.65;71.88
50636;BME280;36598;46.054;11.130;2022-10-31T01:32:50;99992.41;;;13.63;72.50
50636;BME280;36598;46.054;11.130;2022-10-31T01:35:16;99990.41;;;13.63;72.23
50636;BME280;36598;46.054;11.130;2022-10-31T01:37:41;99989.84;;;13.45;73.07
50636;BME280;36598;46.054;11.130;2022-10-31T01:40:07;99987.09;;;13.41;73.37
50636;BME280;36598;46.054;11.130;2022-10-31T01:42:35;99988.88;;;13.24;74.14
50636;BME280;36598;46.054;11.130;2022-10-31T01:45:01;99990.13;;;13.16;74.12
50636;BME280;36598;46.054;11.130;2022-10-31T01:47:48;99994.84;;;13.19;73.91
50636;BME280;36598;46.054;11.130;2022-10-31T01:50:14;99982.59;;;13.13;74.09
50636;BME280;36598;46.054;11.130;2022-10-31T01:52:42;99986.00;;;13.32;73.40
50636;BME280;36598;46.054;11.130;2022-10-31T01:57:36;99980.53;;;13.21;72.80
50636;BME280;36598;46.054;11.130;2022-10-31T02:00:04;99984.94;;;13.18;73.62
50636;BME280;36598;46.054;11.130;2022-10-31T02:02:31;99989.88;;;13.41;72.13
50636;BME280;36598;46.054;11.130;2022-10-31T02:04:56;99981.13;;;13.43;72.65
50636;BME280;36598;46.054;11.130;2022-10-31T02:07:25;99981.75;;;13.23;72.81
50636;BME280;36598;46.054;11.130;2022-10-31T02:09:52;99984.34;;;13.38;72.23
50636;BME280;36598;46.054;11.130;2022-10-31T02:12:18;99984.28;;;13.45;72.50
50636;BME280;36598;46.054;11.130;2022-10-31T02:14:45;99979.72;;;13.27;72.63
50636;BME280;36598;46.054;11.130;2022-10-31T02:17:11;99982.06;;;13.29;72.82
50636;BME280;36598;46.054;11.130;2022-10-31T02:27:21;99983.16;;;12.97;74.05
50636;BME280;36598;46.054;11.130;2022-10-31T02:43:17;99978.81;;;12.96;74.44
50636;BME280;36598;46.054;11.130;2022-10-31T02:48:14;99975.84;;;13.14;73.41
50636;BME280;36598;46.054;11.130;2022-10-31T02:50:44;99968.63;;;13.24;72.85
50636;BME280;36598;46.054;11.130;2022-10-31T02:53:15;99973.53;;;13.06;73.88
50636;BME280;36598;46.054;11.130;2022-10-31T02:55:49;99979.75;;;13.20;73.10
50636;BME280;36598;46.054;11.130;2022-10-31T02:58:16;99977.31;;;13.30;72.57
50636;BME280;36598;46.054;11.130;2022-10-31T03:00:48;99985.72;;;13.19;72.63
50636;BME280;36598;46.054;11.130;2022-10-31T03:03:23;99977.81;;;13.14;72.64
50636;BME280;36598;46.054;11.130;2022-10-31T03:05:53;99979.28;;;13.29;72.24
50636;BME280;36598;46.054;11.130;2022-10-31T03:08:32;99972.56;;;13.26;71.72
50636;BME280;36598;46.054;11.130;2022-10-31T03:11:00;99982.03;;;13.33;71.59
50636;BME280;36598;46.054;11.130;2022-10-31T03:13:38;99976.44;;;13.36;71.38
50636;BME280;36598;46.054;11.130;2022-10-31T03:18:59;99975.53;;;13.05;72.46
50636;BME280;36598;46.054;11.130;2022-10-31T03:21:27;99986.75;;;12.98;72.57
50636;BME280;36598;46.054;11.130;2022-10-31T03:23:55;99990.97;;;13.10;72.09
50636;BME280;36598;46.054;11.130;2022-10-31T03:26:22;99981.88;;;13.06;72.00
50636;BME280;36598;46.054;11.130;2022-10-31T03:28:50;99993.97;;;12.88;72.42
50636;BME280;36598;46.054;11.130;2022-10-31T03:31:17;99988.47;;;12.81;73.96
50636;BME280;36598;46.054;11.130;2022-10-31T03:33:43;99993.38;;;13.08;72.80
50636;BME280;36598;46.054;11.130;2022-10-31T03:36:11;99989.28;;;12.82;73.34
50636;BME280;36598;46.054;11.130;2022-10-31T03:38:39;99989.19;;;12.89;73.19
50636;BME280;36598;46.054;11.130;2022-10-31T03:41:07;99990.31;;;12.98;72.64
50636;BME280;36598;46.054;11.130;2022-10-31T03:43:36;99991.44;;;13.01;72.01
50636;BME280;36598;46.054;11.130;2022-10-31T03:46:03;99980.03;;;12.92;72.05
50636;BME280;36598;46.054;11.130;2022-10-31T03:48:29;99995.06;;;12.98;72.28
50636;BME280;36598;46.054;11.130;2022-10-31T03:53:24;99998.19;;;13.03;71.73
50636;BME280;36598;46.054;11.130;2022-10-31T03:56:14;99998.06;;;12.76;73.01
50636;BME280;36598;46.054;11.130;2022-10-31T03:58:38;100001.81;;;12.97;73.24
50636;BME280;36598;46.054;11.130;2022-10-31T04:01:07;100003.53;;;12.84;73.25
50636;BME280;36598;46.054;11.130;2022-10-31T04:03:35;100008.97;;;12.98;72.72
50636;BME280;36598;46.054;11.130;2022-10-31T04:06:03;100003.06;;;12.89;72.18
50636;BME280;36598;46.054;11.130;2022-10-31T04:08:30;99997.72;;;12.67;73.29
50636;BME280;36598;46.054;11.130;2022-10-31T04:10:57;99993.47;;;12.97;72.26
50636;BME280;36598;46.054;11.130;2022-10-31T04:13:26;99998.28;;;12.93;71.98
50636;BME280;36598;46.054;11.130;2022-10-31T04:15:52;99995.16;;;12.87;72.38
50636;BME280;36598;46.054;11.130;2022-10-31T04:18:19;99994.31;;;12.94;72.39
50636;BME280;36598;46.054;11.130;2022-10-31T04:20:44;99994.78;;;12.85;72.61
50636;BME280;36598;46.054;11.130;2022-10-31T04:23:18;100000.00;;;12.79;72.03
50636;BME280;36598;46.054;11.130;2022-10-31T04:25:44;99997.34;;;12.65;72.68
50636;BME280;36598;46.054;11.130;2022-10-31T04:28:09;99992.06;;;12.78;72.12
50636;BME280;36598;46.054;11.130;2022-10-31T04:30:34;100001.13;;;12.86;71.83
50636;BME280;36598;46.054;11.130;2022-10-31T04:33:00;100004.00;;;12.75;72.66
50636;BME280;36598;46.054;11.130;2022-10-31T04:35:25;100006.88;;;12.64;72.61
50636;BME280;36598;46.054;11.130;2022-10-31T04:37:50;100004.91;;;12.61;72.24
50636;BME280;36598;46.054;11.130;2022-10-31T04:40:16;100001.63;;;12.73;72.54
50636;BME280;36598;46.054;11.130;2022-10-31T04:42:41;100010.16;;;12.97;72.04
50636;BME280;36598;46.054;11.130;2022-10-31T04:45:06;100011.56;;;12.71;72.83
50636;BME280;36598;46.054;11.130;2022-10-31T04:47:32;100013.59;;;12.67;73.74
50636;BME280;36598;46.054;11.130;2022-10-31T04:49:58;100016.19;;;12.85;73.22
50636;BME280;36598;46.054;11.130;2022-10-31T04:52:23;100017.50;;;12.73;72.84
50636;BME280;36598;46.054;11.130;2022-10-31T04:54:48;100014.75;;;12.73;73.50
50636;BME280;36598;46.054;11.130;2022-10-31T04:57:14;100020.91;;;12.43;74.21
50636;BME280;36598;46.054;11.130;2022-10-31T04:59:39;100014.72;;;12.76;72.72
50636;BME280;36598;46.054;11.130;2022-10-31T05:02:04;100013.19;;;12.68;72.73
50636;BME280;36598;46.054;11.130;2022-10-31T05:04:29;100009.22;;;12.69;72.90
50636;BME280;36598;46.054;11.130;2022-10-31T05:06:54;100012.81;;;12.63;72.85
50636;BME280;36598;46.054;11.130;2022-10-31T05:09:20;100016.75;;;12.69;73.17
50636;BME280;36598;46.054;11.130;2022-10-31T05:11:45;100009.28;;;12.59;73.27
50636;BME280;36598;46.054;11.130;2022-10-31T05:14:10;100016.69;;;12.76;72.07
50636;BME280;36598;46.054;11.130;2022-10-31T05:16:35;100017.38;;;12.87;72.45
50636;BME280;36598;46.054;11.130;2022-10-31T05:19:01;100011.09;;;12.79;71.89
50636;BME280;36598;46.054;11.130;2022-10-31T05:21:26;100023.00;;;12.80;72.66
50636;BME280;36598;46.054;11.130;2022-10-31T05:23:51;100024.63;;;12.22;74.82
50636;BME280;36598;46.054;11.130;2022-10-31T05:26:17;100023.88;;;12.14;75.15
50636;BME280;36598;46.054;11.130;2022-10-31T05:28:42;100026.16;;;12.26;75.24
50636;BME280;36598;46.054;11.130;2022-10-31T05:31:07;100021.38;;;12.31;74.78
50636;BME280;36598;46.054;11.130;2022-10-31T05:33:32;100023.88;;;12.14;75.42
50636;BME280;36598;46.054;11.130;2022-10-31T05:35:58;100021.44;;;12.23;75.34
50636;BME280;36598;46.054;11.130;2022-10-31T05:38:23;100017.13;;;12.15;74.93
50636;BME280;36598;46.054;11.130;2022-10-31T05:40:48;100009.91;;;12.28;75.42
50636;BME280;36598;46.054;11.130;2022-10-31T05:43:13;100014.69;;;12.24;75.20
50636;BME280;36598;46.054;11.130;2022-10-31T05:45:39;100019.47;;;12.20;74.97
50636;BME280;36598;46.054;11.130;2022-10-31T05:48:04;100020.28;;;12.17;74.23
50636;BME280;36598;46.054;11.130;2022-10-31T05:50:30;100013.09;;;12.27;74.30
50636;BME280;36598;46.054;11.130;2022-10-31T05:52:59;100017.03;;;12.30;73.80
50636;BME280;36598;46.054;11.130;2022-10-31T05:55:25;100018.75;;;12.09;75.16
50636;BME280;36598;46.054;11.130;2022-10-31T05:57:51;100024.31;;;12.06;74.87
50636;BME280;36598;46.054;11.130;2022-10-31T06:00:17;100032.16;;;12.21;75.06
50636;BME280;36598;46.054;11.130;2022-10-31T06:02:42;100022.09;;;12.42;73.70
50636;BME280;36598;46.054;11.130;2022-10-31T06:05:07;100031.00;;;12.12;74.57
50636;BME280;36598;46.054;11.130;2022-10-31T06:07:33;100027.38;;;12.25;74.10
50636;BME280;36598;46.054;11.130;2022-10-31T06:09:59;100028.16;;;12.30;74.74
50636;BME280;36598;46.054;11.130;2022-10-31T06:12:24;100030.63;;;12.13;75.32
50636;BME280;36598;46.054;11.130;2022-10-31T06:14:49;100034.16;;;12.17;74.27
50636;BME280;36598;46.054;11.130;2022-10-31T06:17:15;100032.84;;;12.33;74.29
50636;BME280;36598;46.054;11.130;2022-10-31T06:19:40;100040.91;;;12.16;74.86
50636;BME280;36598;46.054;11.130;2022-10-31T06:22:05;100038.47;;;12.29;74.54
50636;BME280;36598;46.054;11.130;2022-10-31T06:24:30;100045.38;;;12.59;73.83
50636;BME280;36598;46.054;11.130;2022-10-31T06:26:56;100042.66;;;12.55;74.12
50636;BME280;36598;46.054;11.130;2022-10-31T06:29:21;100047.28;;;12.72;73.09
50636;BME280;36598;46.054;11.130;2022-10-31T06:31:46;100043.34;;;12.63;72.73
50636;BME280;36598;46.054;11.130;2022-10-31T06:34:11;100042.09;;;12.74;72.16
50636;BME280;36598;46.054;11.130;2022-10-31T06:36:36;100044.72;;;12.89;71.05
50636;BME280;36598;46.054;11.130;2022-10-31T06:39:02;100047.50;;;12.89;71.75
50636;BME280;36598;46.054;11.130;2022-10-31T06:41:27;100053.97;;;12.78;71.58
50636;BME280;36598;46.054;11.130;2022-10-31T06:43:52;100041.09;;;12.99;70.82
50636;BME280;36598;46.054;11.130;2022-10-31T06:46:17;100040.97;;;13.10;70.88
50636;BME280;36598;46.054;11.130;2022-10-31T06:48:43;100043.38;;;13.11;70.88
50636;BME280;36598;46.054;11.130;2022-10-31T06:51:08;100061.22;;;13.10;70.37
50636;BME280;36598;46.054;11.130;2022-10-31T06:53:33;100046.84;;;12.74;71.84
50636;BME280;36598;46.054;11.130;2022-10-31T06:55:58;100049.41;;;13.02;71.00
50636;BME280;36598;46.054;11.130;2022-10-31T06:58:24;100048.66;;;13.40;70.27
50636;BME280;36598;46.054;11.130;2022-10-31T07:00:49;100055.81;;;13.41;69.47
50636;BME280;36598;46.054;11.130;2022-10-31T07:03:15;100048.97;;;13.49;69.36
50636;BME280;36598;46.054;11.130;2022-10-31T07:05:40;100053.22;;;13.57;67.57
50636;BME280;36598;46.054;11.130;2022-10-31T07:08:07;100047.25;;;13.17;68.79
50636;BME280;36598;46.054;11.130;2022-10-31T07:10:34;100059.84;;;13.70;67.20
50636;BME280;36598;46.054;11.130;2022-10-31T07:13:00;100062.28;;;13.99;65.89
50636;BME280;36598;46.054;11.130;2022-10-31T07:15:26;100057.97;;;13.60;67.32
50636;BME280;36598;46.054;11.130;2022-10-31T07:17:52;100060.44;;;13.89;66.76
50636;BME280;36598;46.054;11.130;2022-10-31T07:20:18;100057.09;;;14.01;66.82
50636;BME280;36598;46.054;11.130;2022-10-31T07:22:43;100058.69;;;13.68;67.35
50636;BME280;36598;46.054;11.130;2022-10-31T07:25:09;100062.53;;;13.77;66.95
50636;BME280;36598;46.054;11.130;2022-10-31T07:27:37;100056.63;;;14.06;66.18
50636;BME280;36598;46.054;11.130;2022-10-31T07:30:03;100065.16;;;14.53;64.24
50636;BME280;36598;46.054;11.130;2022-10-31T07:32:36;100060.03;;;14.48;64.90
50636;BME280;36598;46.054;11.130;2022-10-31T07:35:01;100068.28;;;14.55;64.11
50636;BME280;36598;46.054;11.130;2022-10-31T07:37:27;100070.50;;;14.67;63.93
50636;BME280;36598;46.054;11.130;2022-10-31T07:39:52;100068.25;;;14.28;64.85
50636;BME280;36598;46.054;11.130;2022-10-31T07:42:17;100072.00;;;14.72;63.49
50636;BME280;36598;46.054;11.130;2022-10-31T07:44:43;100068.53;;;14.64;63.40
50636;BME280;36598;46.054;11.130;2022-10-31T07:47:08;100063.31;;;20.24;48.93
50636;BME280;36598;46.054;11.130;2022-10-31T07:49:33;100048.56;;;25.93;35.76
50636;BME280;36598;46.054;11.130;2022-10-31T07:51:58;100050.31;;;28.56;30.38
50636;BME280;36598;46.054;11.130;2022-10-31T07:54:23;100047.75;;;31.74;25.30
50636;BME280;36598;46.054;11.130;2022-10-31T07:56:49;100041.84;;;33.21;23.25
50636;BME280;36598;46.054;11.130;2022-10-31T07:59:14;100051.53;;;34.76;21.40
50636;BME280;36598;46.054;11.130;2022-10-31T08:01:39;100048.75;;;37.55;18.83
50636;BME280;36598;46.054;11.130;2022-10-31T08:04:04;100045.00;;;35.76;20.30
50636;BME280;36598;46.054;11.130;2022-10-31T08:06:30;100045.25;;;38.54;17.59
50636;BME280;36598;46.054;11.130;2022-10-31T08:08:55;100039.56;;;36.32;18.74
50636;BME280;36598;46.054;11.130;2022-10-31T08:11:20;100047.03;;;34.18;20.89
50636;BME280;36598;46.054;11.130;2022-10-31T08:13:46;100042.69;;;37.76;17.75
50636;BME280;36598;46.054;11.130;2022-10-31T08:16:11;100037.25;;;36.46;18.47
50636;BME280;36598;46.054;11.130;2022-10-31T08:18:36;100033.50;;;38.02;17.46
50636;BME280;36598;46.054;11.130;2022-10-31T08:21:02;100034.94;;;39.38;15.98
50636;BME280;36598;46.054;11.130;2022-10-31T08:23:28;100027.81;;;37.47;17.77
50636;BME280;36598;46.054;11.130;2022-10-31T08:25:53;100033.03;;;38.64;16.53
50636;BME280;36598;46.054;11.130;2022-10-31T08:28:18;100034.72;;;36.88;18.64
50636;BME280;36598;46.054;11.130;2022-10-31T08:30:43;100026.59;;;39.42;15.98
50636;BME280;36598;46.054;11.130;2022-10-31T08:33:14;100022.94;;;37.97;16.68
50636;BME280;36598;46.054;11.130;2022-10-31T08:35:39;100013.34;;;41.54;14.65
50636;BME280;36598;46.054;11.130;2022-10-31T08:38:05;100021.72;;;39.89;15.29
50636;BME280;36598;46.054;11.130;2022-10-31T08:40:31;100016.63;;;39.18;16.00
50636;BME280;36598;46.054;11.130;2022-10-31T08:45:22;100008.66;;;43.38;12.67
50636;BME280;36598;46.054;11.130;2022-10-31T08:47:47;100001.72;;;43.43;12.51
50636;BME280;36598;46.054;11.130;2022-10-31T08:50:13;99995.63;;;42.84;12.91
50636;BME280;36598;46.054;11.130;2022-10-31T08:52:38;100004.84;;;40.32;14.56
50636;BME280;36598;46.054;11.130;2022-10-31T08:55:03;99995.28;;;42.68;12.78
50636;BME280;36598;46.054;11.130;2022-10-31T08:57:28;99998.53;;;42.00;13.38
50636;BME280;36598;46.054;11.130;2022-10-31T08:59:54;99998.47;;;42.94;12.60
50636;BME280;36598;46.054;11.130;2022-10-31T09:02:19;100002.50;;;40.77;14.02
50636;BME280;36598;46.054;11.130;2022-10-31T09:04:44;99994.88;;;42.31;12.85
50636;BME280;36598;46.054;11.130;2022-10-31T09:07:09;99994.78;;;39.96;14.73
50636;BME280;36598;46.054;11.130;2022-10-31T09:09:35;99982.97;;;42.48;13.21
50636;BME280;36598;46.054;11.130;2022-10-31T09:12:00;99988.88;;;42.08;13.27
50636;BME280;36598;46.054;11.130;2022-10-31T09:14:25;99981.91;;;44.45;11.81
50636;BME280;36598;46.054;11.130;2022-10-31T09:16:51;99983.22;;;41.49;13.50
50636;BME280;36598;46.054;11.130;2022-10-31T09:19:16;99984.22;;;42.24;13.06
50636;BME280;36598;46.054;11.130;2022-10-31T09:21:42;99967.63;;;45.63;11.29
50636;BME280;36598;46.054;11.130;2022-10-31T09:24:07;99969.91;;;43.35;12.47
50636;BME280;36598;46.054;11.130;2022-10-31T09:26:33;99972.50;;;43.19;12.62
50636;BME280;36598;46.054;11.130;2022-10-31T09:28:58;99974.91;;;43.68;12.46
50636;BME280;36598;46.054;11.130;2022-10-31T09:31:26;99972.09;;;41.96;13.65
50636;BME280;36598;46.054;11.130;2022-10-31T09:33:52;99964.81;;;41.86;13.87
50636;BME280;36598;46.054;11.130;2022-10-31T09:36:18;99961.06;;;41.54;14.27
50636;BME280;36598;46.054;11.130;2022-10-31T09:38:43;99953.47;;;41.20;14.35
50636;BME280;36598;46.054;11.130;2022-10-31T09:46:49;99967.06;;;39.49;15.62
50636;BME280;36598;46.054;11.130;2022-10-31T09:51:50;99950.44;;;43.05;12.78
50636;BME280;36598;46.054;11.130;2022-10-31T09:54:19;99946.44;;;40.09;15.01
50636;BME280;36598;46.054;11.130;2022-10-31T09:56:46;99941.38;;;39.18;15.96
50636;BME280;36598;46.054;11.130;2022-10-31T09:59:21;99945.75;;;38.15;16.58
50636;BME280;36598;46.054;11.130;2022-10-31T10:01:51;99946.75;;;38.10;17.21
50636;BME280;36598;46.054;11.130;2022-10-31T10:06:52;99933.50;;;39.73;15.67
50636;BME280;36598;46.054;11.130;2022-10-31T10:09:19;99927.41;;;39.69;15.73
50636;BME280;36598;46.054;11.130;2022-10-31T10:11:59;99925.97;;;42.12;13.44
50636;BME280;36598;46.054;11.130;2022-10-31T10:22:42;99911.81;;;42.28;13.42
50636;BME280;36598;46.054;11.130;2022-10-31T10:25:14;99904.16;;;40.91;14.13
50636;BME280;36598;46.054;11.130;2022-10-31T10:30:12;99902.50;;;42.63;12.89
50636;BME280;36598;46.054;11.130;2022-10-31T10:35:29;99895.66;;;41.84;13.69
50636;BME280;36598;46.054;11.130;2022-10-31T10:37:57;99886.94;;;43.36;12.83
50636;BME280;36598;46.054;11.130;2022-10-31T10:40:24;99878.13;;;42.03;13.71
50636;BME280;36598;46.054;11.130;2022-10-31T10:42:55;99876.53;;;42.55;13.37
50636;BME280;36598;46.054;11.130;2022-10-31T10:45:40;99879.13;;;43.62;12.69
50636;BME280;36598;46.054;11.130;2022-10-31T10:50:53;99866.28;;;42.54;13.28
50636;BME280;36598;46.054;11.130;2022-10-31T10:58:22;99855.31;;;40.58;14.19
50636;BME280;36598;46.054;11.130;2022-10-31T11:00:47;99849.31;;;40.17;15.15
50636;BME280;36598;46.054;11.130;2022-10-31T11:03:15;99854.38;;;37.27;17.73
50636;BME280;36598;46.054;11.130;2022-10-31T11:05:54;99841.84;;;38.42;16.02
50636;BME280;36598;46.054;11.130;2022-10-31T11:08:29;99845.19;;;37.46;17.65
50636;BME280;36598;46.054;11.130;2022-10-31T11:13:27;99837.13;;;36.08;18.55
50636;BME280;36598;46.054;11.130;2022-10-31T11:18:22;99823.50;;;35.48;18.94
50636;BME280;36598;46.054;11.130;2022-10-31T11:20:53;99821.19;;;35.54;19.67
50636;BME280;36598;46.054;11.130;2022-10-31T11:23:19;99819.66;;;35.76;19.55
50636;BME280;36598;46.054;11.130;2022-10-31T11:25:49;99811.06;;;34.86;20.39
50636;BME280;36598;46.054;11.130;2022-10-31T11:28:15;99812.50;;;35.16;20.43
50636;BME280;36598;46.054;11.130;2022-10-31T11:30:47;99815.91;;;33.27;21.76
50636;BME280;36598;46.054;11.130;2022-10-31T11:33:18;99804.59;;;34.13;20.79
50636;BME280;36598;46.054;11.130;2022-10-31T11:35:44;99804.66;;;33.08;22.51
50636;BME280;36598;46.054;11.130;2022-10-31T11:38:12;99802.41;;;31.48;24.38
50636;BME280;36598;46.054;11.130;2022-10-31T11:40:40;99796.56;;;32.86;23.11
50636;BME280;36598;46.054;11.130;2022-10-31T11:43:16;99800.41;;;32.28;23.61
50636;BME280;36598;46.054;11.130;2022-10-31T11:45:42;99789.28;;;31.98;23.39
50636;BME280;36598;46.054;11.130;2022-10-31T11:48:15;99793.03;;;31.47;23.70
50636;BME280;36598;46.054;11.130;2022-10-31T11:50:41;99786.72;;;29.79;25.67
50636;BME280;36598;46.054;11.130;2022-10-31T11:53:49;99779.50;;;29.48;27.10
50636;BME280;36598;46.054;11.130;2022-10-31T11:56:00;99773.06;;;29.41;27.40
50636;BME280;36598;46.054;11.130;2022-10-31T11:58:26;99769.56;;;29.30;27.53
50636;BME280;36598;46.054;11.130;2022-10-31T12:00:54;99761.13;;;28.72;27.87
50636;BME280;36598;46.054;11.130;2022-10-31T12:05:54;99759.63;;;28.07;28.94
50636;BME280;36598;46.054;11.130;2022-10-31T12:08:21;99752.97;;;27.82;29.32
50636;BME280;36598;46.054;11.130;2022-10-31T12:10:55;99753.50;;;27.75;29.98
50636;BME280;36598;46.054;11.130;2022-10-31T12:19:04;99743.50;;;27.29;30.20
50636;BME280;36598;46.054;11.130;2022-10-31T12:26:55;99738.84;;;27.14;30.39
50636;BME280;36598;46.054;11.130;2022-10-31T12:29:34;99737.75;;;26.78;31.13
50636;BME280;36598;46.054;11.130;2022-10-31T12:32:18;99737.97;;;26.58;31.52
50636;BME280;36598;46.054;11.130;2022-10-31T12:37:17;99723.13;;;26.20;31.99
50636;BME280;36598;46.054;11.130;2022-10-31T12:39:47;99718.66;;;25.96;32.31
50636;BME280;36598;46.054;11.130;2022-10-31T12:44:58;99706.75;;;26.58;31.45
50636;BME280;36598;46.054;11.130;2022-10-31T12:52:38;99703.03;;;26.12;32.12
50636;BME280;36598;46.054;11.130;2022-10-31T12:57:51;99688.31;;;26.19;32.05
50636;BME280;36598;46.054;11.130;2022-10-31T13:00:18;99691.69;;;26.23;32.21
50636;BME280;36598;46.054;11.130;2022-10-31T13:05:23;99688.06;;;26.17;32.35
50636;BME280;36598;46.054;11.130;2022-10-31T13:08:14;99681.66;;;26.28;32.56
50636;BME280;36598;46.054;11.130;2022-10-31T13:10:40;99680.19;;;25.79;32.97
50636;BME280;36598;46.054;11.130;2022-10-31T13:13:10;99668.09;;;25.84;33.58
50636;BME280;36598;46.054;11.130;2022-10-31T13:15:46;99678.50;;;25.61;33.61
50636;BME280;36598;46.054;11.130;2022-10-31T13:18:14;99672.47;;;25.85;32.45
50636;BME280;36598;46.054;11.130;2022-10-31T13:20:43;99665.94;;;25.67;32.14
50636;BME280;36598;46.054;11.130;2022-10-31T13:25:39;99662.91;;;25.28;32.45
50636;BME280;36598;46.054;11.130;2022-10-31T13:28:23;99660.84;;;25.29;32.16
50636;BME280;36598;46.054;11.130;2022-10-31T13:30:51;99659.09;;;25.05;33.14
50636;BME280;36598;46.054;11.130;2022-10-31T13:33:25;99655.38;;;25.19;33.73
50636;BME280;36598;46.054;11.130;2022-10-31T13:43:59;99644.72;;;24.77;33.46
50636;BME280;36598;46.054;11.130;2022-10-31T13:46:34;99643.59;;;24.95;33.05
50636;BME280;36598;46.054;11.130;2022-10-31T13:48:59;99638.72;;;24.64;33.76
50636;BME280;36598;46.054;11.130;2022-10-31T13:51:29;99636.78;;;24.81;34.29
50636;BME280;36598;46.054;11.130;2022-10-31T13:56:21;99636.06;;;24.55;34.56
50636;BME280;36598;46.054;11.130;2022-10-31T14:01:31;99629.00;;;24.18;34.44
50636;BME280;36598;46.054;11.130;2022-10-31T14:04:01;99640.06;;;23.96;35.09
50636;BME280;36598;46.054;11.130;2022-10-31T14:09:04;99628.59;;;24.05;35.45
50636;BME280;36598;46.054;11.130;2022-10-31T14:11:30;99627.84;;;23.84;36.09
50636;BME280;36598;46.054;11.130;2022-10-31T14:13:56;99630.72;;;23.49;36.35
50636;BME280;36598;46.054;11.130;2022-10-31T14:16:24;99630.50;;;23.53;36.66
50636;BME280;36598;46.054;11.130;2022-10-31T14:18:51;99634.66;;;23.37;37.20
50636;BME280;36598;46.054;11.130;2022-10-31T14:23:49;99638.09;;;22.91;38.45
50636;BME280;36598;46.054;11.130;2022-10-31T14:28:43;99639.84;;;22.44;39.15
50636;BME280;36598;46.054;11.130;2022-10-31T14:33:49;99643.06;;;22.52;39.21
50636;BME280;36598;46.054;11.130;2022-10-31T14:36:18;99638.88;;;22.62;39.17
50636;BME280;36598;46.054;11.130;2022-10-31T14:51:36;99623.22;;;20.96;45.46
50636;BME280;36598;46.054;11.130;2022-10-31T14:54:04;99628.06;;;21.29;44.77
50636;BME280;36598;46.054;11.130;2022-10-31T14:56:31;99624.91;;;21.36;44.83
50636;BME280;36598;46.054;11.130;2022-10-31T14:59:00;99625.69;;;21.27;44.41
50636;BME280;36598;46.054;11.130;2022-10-31T15:03:53;99621.72;;;21.10;46.88
50636;BME280;36598;46.054;11.130;2022-10-31T15:06:22;99622.34;;;21.14;46.64
50636;BME280;36598;46.054;11.130;2022-10-31T15:08:49;99623.34;;;21.02;47.51